createdAt,value
2018-12-27T00:00:10.595Z,25.16
2018-12-27T00:02:18.376Z,25.19
2018-12-27T00:04:25.619Z,25.17
2018-12-27T00:06:34.717Z,25.00
2018-12-27T00:08:42.109Z,25.11
2018-12-27T00:10:49.259Z,25.13
2018-12-27T00:12:56.404Z,24.94
2018-12-27T00:15:03.588Z,25.03
2018-12-27T00:17:10.733Z,24.74
2018-12-27T00:19:17.846Z,24.44
2018-12-27T00:21:25.166Z,24.70
2018-12-27T00:23:32.248Z,24.77
2018-12-27T00:25:39.585Z,24.74
2018-12-27T00:27:46.578Z,24.82
2018-12-27T00:29:53.610Z,24.73
2018-12-27T00:32:01.098Z,24.78
2018-12-27T00:34:08.797Z,24.89
2018-12-27T00:36:16.447Z,24.83
2018-12-27T00:38:24.221Z,24.91
2018-12-27T00:40:31.254Z,24.92
2018-12-27T00:42:38.826Z,24.92
2018-12-27T00:44:46.504Z,24.88
2018-12-27T00:46:53.772Z,24.75
2018-12-27T00:49:01.262Z,24.78
2018-12-27T00:51:08.554Z,24.78
2018-12-27T00:53:16.175Z,24.67
2018-12-27T00:55:23.623Z,24.57
2018-12-27T00:57:30.801Z,24.55
2018-12-27T00:59:38.570Z,24.62
2018-12-27T01:01:46.801Z,24.83
2018-12-27T01:03:54.065Z,24.76
2018-12-27T01:06:01.301Z,24.86
2018-12-27T01:08:09.097Z,24.76
2018-12-27T01:10:16.251Z,24.79
2018-12-27T01:12:23.740Z,24.67
2018-12-27T01:14:31.455Z,24.57
2018-12-27T01:16:38.703Z,24.27
2018-12-27T01:18:45.817Z,24.18
2018-12-27T01:20:53.735Z,23.70
2018-12-27T01:23:01.554Z,23.50
2018-12-27T01:25:09.200Z,23.22
2018-12-27T01:27:18.151Z,22.80
2018-12-27T01:29:25.919Z,22.70
2018-12-27T01:31:36.028Z,22.72
2018-12-27T01:33:45.233Z,22.59
2018-12-27T01:35:52.632Z,22.53
2018-12-27T01:37:59.844Z,22.40
2018-12-27T01:40:07.262Z,22.59
2018-12-27T01:42:15.096Z,22.76
2018-12-27T01:44:26.405Z,22.90
2018-12-27T01:46:33.734Z,22.94
2018-12-27T01:48:40.995Z,23.07
2018-12-27T01:50:48.492Z,23.06
2018-12-27T01:52:55.688Z,23.13
2018-12-27T01:55:03.401Z,23.15
2018-12-27T01:57:10.646Z,23.18
2018-12-27T01:59:17.811Z,23.19
2018-12-27T02:01:25.174Z,23.09
2018-12-27T02:03:32.830Z,23.35
2018-12-27T02:05:40.565Z,23.37
2018-12-27T02:07:47.726Z,23.32
2018-12-27T02:09:55.205Z,23.43
2018-12-27T02:12:04.052Z,23.56
2018-12-27T02:14:11.498Z,23.61
2018-12-27T02:16:18.865Z,23.75
2018-12-27T02:18:26.576Z,23.70
2018-12-27T02:20:33.994Z,23.82
2018-12-27T02:22:41.230Z,23.80
2018-12-27T02:24:48.453Z,23.78
2018-12-27T02:26:56.298Z,23.83
2018-12-27T02:29:03.599Z,23.76
2018-12-27T02:31:11.797Z,23.84
2018-12-27T02:33:19.301Z,23.85
2018-12-27T02:35:26.668Z,23.84
2018-12-27T02:37:34.127Z,23.89
2018-12-27T02:39:41.435Z,23.71
2018-12-27T02:41:48.736Z,23.79
2018-12-27T02:43:55.980Z,23.89
2018-12-27T02:46:03.290Z,23.74
2018-12-27T02:48:10.798Z,23.53
2018-12-27T02:50:18.718Z,23.63
2018-12-27T02:52:27.215Z,23.63
2018-12-27T02:54:34.325Z,23.64
2018-12-27T02:56:41.716Z,23.64
2018-12-27T02:58:49.149Z,23.67
2018-12-27T03:00:56.448Z,23.50
2018-12-27T03:03:05.288Z,23.63
2018-12-27T03:05:13.126Z,23.52
2018-12-27T03:07:20.171Z,23.46
2018-12-27T03:09:27.681Z,23.68
2018-12-27T03:11:35.126Z,23.58
2018-12-27T03:13:42.197Z,23.65
2018-12-27T03:15:49.464Z,23.56
2018-12-27T03:17:56.417Z,23.59
2018-12-27T03:20:03.540Z,23.56
2018-12-27T03:22:12.383Z,23.69
2018-12-27T03:24:19.725Z,23.65
2018-12-27T03:26:27.116Z,23.68
2018-12-27T03:28:34.914Z,23.79
2018-12-27T03:30:41.857Z,23.68
2018-12-27T03:32:49.281Z,23.73
2018-12-27T03:34:57.222Z,23.72
2018-12-27T03:37:07.595Z,23.74
2018-12-27T03:39:14.814Z,23.65
2018-12-27T03:41:22.029Z,23.56
2018-12-27T03:43:29.287Z,23.65
2018-12-27T03:45:38.108Z,23.71
2018-12-27T03:47:45.818Z,23.69
2018-12-27T03:49:52.754Z,23.68
2018-12-27T03:52:00.222Z,23.72
2018-12-27T03:54:08.553Z,23.63
2018-12-27T03:56:16.832Z,23.71
2018-12-27T03:58:24.551Z,23.64
2018-12-27T04:00:32.932Z,23.64
2018-12-27T04:02:40.836Z,23.59
2018-12-27T04:04:48.425Z,23.54
2018-12-27T04:06:57.066Z,23.52
2018-12-27T04:09:04.833Z,23.57
2018-12-27T04:11:11.917Z,23.56
2018-12-27T04:13:20.004Z,23.40
2018-12-27T04:15:27.359Z,23.38
2018-12-27T04:17:34.602Z,23.37
2018-12-27T04:19:42.150Z,23.33
2018-12-27T04:21:49.262Z,23.27
2018-12-27T04:23:57.076Z,23.31
2018-12-27T04:26:04.955Z,23.25
2018-12-27T04:28:13.773Z,23.14
2018-12-27T04:30:20.879Z,23.07
2018-12-27T04:32:28.675Z,23.06
2018-12-27T04:34:37.834Z,23.03
2018-12-27T04:36:46.390Z,23.14
2018-12-27T04:38:53.853Z,23.17
2018-12-27T04:41:01.285Z,23.18
2018-12-27T04:43:11.247Z,23.10
2018-12-27T04:45:18.349Z,23.15
2018-12-27T04:47:26.321Z,23.05
2018-12-27T04:49:33.751Z,23.08
2018-12-27T04:51:41.032Z,23.19
2018-12-27T04:56:01.969Z,23.28
2018-12-27T04:58:09.265Z,23.23
2018-12-27T05:00:16.615Z,23.23
2018-12-27T05:02:23.646Z,23.18
2018-12-27T05:04:30.895Z,23.21
2018-12-27T05:06:39.072Z,23.18
2018-12-27T05:08:46.584Z,23.22
2018-12-27T05:10:53.799Z,23.13
2018-12-27T05:13:01.402Z,23.13
2018-12-27T05:15:08.888Z,23.19
2018-12-27T05:17:16.255Z,23.35
2018-12-27T05:19:23.566Z,23.34
2018-12-27T05:21:31.136Z,23.39
2018-12-27T05:23:38.632Z,23.50
2018-12-27T05:25:45.888Z,23.58
2018-12-27T05:27:54.106Z,23.70
2018-12-27T05:30:01.429Z,23.75
2018-12-27T05:32:08.908Z,23.59
2018-12-27T05:34:15.958Z,23.49
2018-12-27T05:36:23.526Z,23.47
2018-12-27T05:38:30.643Z,23.48
2018-12-27T05:40:38.107Z,23.39
2018-12-27T05:42:45.421Z,23.28
2018-12-27T05:44:52.723Z,23.19
2018-12-27T05:47:00.044Z,23.18
2018-12-27T05:49:08.212Z,23.26
2018-12-27T05:51:15.601Z,23.19
2018-12-27T05:53:23.007Z,23.14
2018-12-27T05:55:34.313Z,23.10
2018-12-27T05:57:38.659Z,23.10
2018-12-27T05:59:46.135Z,22.89
2018-12-27T06:01:52.899Z,22.84
2018-12-27T06:04:00.253Z,22.72
2018-12-27T06:06:07.416Z,22.58
2018-12-27T06:08:14.553Z,22.59
2018-12-27T06:10:21.458Z,22.53
2018-12-27T06:12:29.661Z,22.61
2018-12-27T06:14:36.428Z,22.22
2018-12-27T06:16:43.537Z,22.70
2018-12-27T06:18:51.190Z,22.74
2018-12-27T06:20:58.571Z,22.69
2018-12-27T06:23:05.774Z,22.73
2018-12-27T06:25:13.006Z,22.70
2018-12-27T06:27:20.312Z,22.80
2018-12-27T06:29:27.427Z,22.84
2018-12-27T06:31:34.637Z,22.92
2018-12-27T06:33:41.966Z,23.07
2018-12-27T06:35:49.226Z,23.13
2018-12-27T06:37:56.162Z,23.03
2018-12-27T06:40:03.700Z,23.00
2018-12-27T06:42:10.891Z,23.05
2018-12-27T06:44:18.291Z,23.04
2018-12-27T06:46:25.553Z,22.94
2018-12-27T06:48:32.649Z,22.78
2018-12-27T06:50:39.911Z,22.72
2018-12-27T06:52:47.005Z,22.69
2018-12-27T06:54:54.146Z,22.68
2018-12-27T06:57:01.222Z,22.64
2018-12-27T06:59:08.594Z,22.58
2018-12-27T07:01:15.809Z,22.51
2018-12-27T07:03:22.912Z,22.57
2018-12-27T07:05:30.078Z,22.54
2018-12-27T07:07:37.153Z,22.39
2018-12-27T07:09:44.454Z,22.38
2018-12-27T07:12:00.142Z,22.37
2018-12-27T07:14:07.518Z,22.29
2018-12-27T07:16:15.113Z,22.30
2018-12-27T07:18:22.235Z,22.39
2018-12-27T07:20:30.135Z,22.32
2018-12-27T07:22:37.195Z,22.45
2018-12-27T07:24:44.554Z,22.51
2018-12-27T07:26:51.746Z,22.54
2018-12-27T07:28:58.866Z,22.69
2018-12-27T07:31:06.226Z,22.76
2018-12-27T07:33:13.489Z,22.83
2018-12-27T07:35:21.122Z,23.02
2018-12-27T07:37:28.451Z,23.19
2018-12-27T07:39:35.660Z,23.19
2018-12-27T07:41:42.912Z,23.07
2018-12-27T07:43:51.551Z,23.07
2018-12-27T07:45:58.710Z,23.08
2018-12-27T07:48:06.105Z,23.05
2018-12-27T07:50:13.763Z,22.97
2018-12-27T07:52:20.868Z,22.95
2018-12-27T07:54:28.126Z,22.88
2018-12-27T07:56:35.452Z,22.80
2018-12-27T07:58:42.749Z,22.58
2018-12-27T08:00:50.132Z,22.57
2018-12-27T08:02:57.019Z,22.42
2018-12-27T08:05:04.614Z,22.35
2018-12-27T08:07:12.542Z,22.39
2018-12-27T08:09:21.117Z,22.36
2018-12-27T08:11:28.732Z,22.36
2018-12-27T08:13:35.868Z,22.37
2018-12-27T08:15:43.515Z,22.36
2018-12-27T08:17:50.662Z,22.29
2018-12-27T08:19:57.989Z,22.31
2018-12-27T08:22:05.440Z,22.28
2018-12-27T08:24:12.557Z,22.26
2018-12-27T08:26:19.793Z,22.33
2018-12-27T08:28:27.354Z,22.48
2018-12-27T08:30:35.054Z,22.56
2018-12-27T08:32:42.272Z,22.71
2018-12-27T08:34:49.624Z,22.83
2018-12-27T08:36:57.039Z,22.94
2018-12-27T08:39:04.908Z,22.96
2018-12-27T08:41:13.006Z,23.08
2018-12-27T08:43:20.262Z,23.26
2018-12-27T08:45:27.802Z,23.21
2018-12-27T08:47:34.973Z,23.03
2018-12-27T08:49:42.260Z,23.04
2018-12-27T08:51:49.689Z,23.03
2018-12-27T08:53:57.074Z,22.87
2018-12-27T08:56:04.024Z,22.79
2018-12-27T08:58:11.882Z,22.70
2018-12-27T09:00:19.814Z,22.67
2018-12-27T09:02:27.600Z,22.62
2018-12-27T09:04:34.682Z,22.59
2018-12-27T09:06:42.745Z,22.57
2018-12-27T09:08:50.075Z,22.44
2018-12-27T09:10:58.757Z,22.47
2018-12-27T09:13:05.957Z,22.50
2018-12-27T09:15:13.964Z,22.44
2018-12-27T09:17:21.166Z,22.38
2018-12-27T09:19:28.309Z,22.26
2018-12-27T09:21:36.143Z,22.39
2018-12-27T09:23:43.995Z,22.26
2018-12-27T09:25:51.791Z,22.20
2018-12-27T09:27:58.612Z,22.18
2018-12-27T09:30:05.996Z,22.20
2018-12-27T09:32:13.187Z,22.11
2018-12-27T09:34:20.354Z,22.14
2018-12-27T09:36:27.339Z,22.16
2018-12-27T09:38:34.613Z,22.35
2018-12-27T09:40:42.211Z,22.50
2018-12-27T09:42:49.336Z,22.64
2018-12-27T09:44:57.302Z,22.71
2018-12-27T09:47:04.465Z,22.90
2018-12-27T09:49:12.681Z,23.00
2018-12-27T09:51:19.828Z,23.09
2018-12-27T09:53:27.046Z,23.19
2018-12-27T09:55:34.225Z,23.38
2018-12-27T09:57:41.407Z,23.42
2018-12-27T09:59:48.687Z,23.13
2018-12-27T10:01:55.766Z,23.11
2018-12-27T10:04:03.585Z,23.00
2018-12-27T10:06:10.916Z,23.03
2018-12-27T10:08:17.955Z,22.95
2018-12-27T10:10:25.108Z,22.81
2018-12-27T10:12:33.118Z,22.80
2018-12-27T10:14:40.321Z,22.72
2018-12-27T10:16:48.337Z,22.68
2018-12-27T10:18:55.621Z,22.62
2018-12-27T10:21:02.839Z,22.56
2018-12-27T10:23:10.576Z,22.57
2018-12-27T10:25:17.684Z,22.45
2018-12-27T10:27:25.484Z,22.40
2018-12-27T10:29:32.670Z,22.38
2018-12-27T10:31:40.013Z,22.39
2018-12-27T10:33:47.123Z,22.36
2018-12-27T10:35:54.240Z,22.19
2018-12-27T10:38:01.517Z,22.17
2018-12-27T10:40:11.631Z,22.18
2018-12-27T10:42:18.852Z,22.09
2018-12-27T10:44:26.092Z,22.19
2018-12-27T10:46:33.249Z,22.23
2018-12-27T10:48:40.642Z,22.11
2018-12-27T10:50:47.893Z,22.11
2018-12-27T10:52:54.930Z,22.07
2018-12-27T10:55:02.379Z,22.16
2018-12-27T10:57:10.788Z,22.27
2018-12-27T10:59:17.929Z,22.36
2018-12-27T11:01:25.237Z,22.58
2018-12-27T11:03:32.284Z,22.69
2018-12-27T11:05:39.542Z,22.89
2018-12-27T11:07:46.927Z,23.02
2018-12-27T11:09:54.309Z,23.15
2018-12-27T11:12:01.827Z,23.27
2018-12-27T11:14:08.884Z,23.35
2018-12-27T11:16:16.091Z,23.20
2018-12-27T11:18:23.594Z,23.16
2018-12-27T11:20:31.150Z,23.11
2018-12-27T11:22:38.556Z,22.92
2018-12-27T11:24:45.504Z,22.86
2018-12-27T11:26:52.781Z,22.83
2018-12-27T11:29:00.813Z,22.77
2018-12-27T11:31:07.808Z,22.71
2018-12-27T11:33:15.455Z,22.57
2018-12-27T11:35:22.679Z,22.53
2018-12-27T11:37:29.970Z,22.45
2018-12-27T11:39:37.287Z,22.41
2018-12-27T11:41:44.254Z,22.27
2018-12-27T11:43:51.536Z,22.28
2018-12-27T11:45:58.910Z,22.25
2018-12-27T11:48:05.964Z,22.33
2018-12-27T11:50:13.186Z,22.24
2018-12-27T11:52:21.170Z,22.24
2018-12-27T11:54:28.420Z,22.24
2018-12-27T11:56:35.436Z,22.09
2018-12-27T11:58:42.631Z,22.11
2018-12-27T12:00:49.922Z,22.15
2018-12-27T12:02:56.935Z,22.22
2018-12-27T12:05:04.287Z,22.33
2018-12-27T12:07:11.560Z,22.37
2018-12-27T12:09:18.645Z,22.52
2018-12-27T12:11:25.880Z,22.71
2018-12-27T12:13:33.106Z,22.90
2018-12-27T12:15:41.035Z,23.09
2018-12-27T12:17:48.407Z,23.21
2018-12-27T12:19:55.743Z,23.31
2018-12-27T12:22:03.121Z,23.20
2018-12-27T12:24:10.382Z,23.14
2018-12-27T12:26:17.681Z,23.04
2018-12-27T12:28:25.125Z,22.95
2018-12-27T12:30:31.900Z,22.87
2018-12-27T12:32:39.143Z,22.78
2018-12-27T12:34:46.703Z,22.68
2018-12-27T12:36:54.427Z,22.67
2018-12-27T12:39:01.655Z,22.77
2018-12-27T12:41:08.853Z,22.94
2018-12-27T12:43:16.134Z,23.11
2018-12-27T12:45:23.380Z,23.25
2018-12-27T12:47:30.523Z,23.36
2018-12-27T12:49:38.612Z,23.49
2018-12-27T12:51:45.683Z,23.57
2018-12-27T12:53:52.897Z,23.69
2018-12-27T12:56:00.054Z,23.78
2018-12-27T12:58:07.404Z,23.90
2018-12-27T13:00:15.136Z,23.93
2018-12-27T13:02:22.419Z,24.03
2018-12-27T13:04:29.761Z,24.17
2018-12-27T13:06:36.827Z,24.20
2018-12-27T13:08:45.142Z,24.32
2018-12-27T13:10:52.166Z,24.43
2018-12-27T13:13:00.059Z,24.52
2018-12-27T13:15:07.525Z,24.56
2018-12-27T13:17:14.727Z,24.62
2018-12-27T13:19:21.990Z,24.69
2018-12-27T13:21:29.574Z,24.70
2018-12-27T13:23:36.650Z,24.72
2018-12-27T13:25:44.498Z,24.73
2018-12-27T13:27:51.679Z,24.79
2018-12-27T13:29:59.054Z,24.83
2018-12-27T13:32:06.480Z,24.83
2018-12-27T13:34:13.570Z,24.88
2018-12-27T13:36:25.362Z,24.86
2018-12-27T13:38:29.778Z,24.92
2018-12-27T13:40:36.983Z,24.94
2018-12-27T13:42:44.176Z,25.04
2018-12-27T13:44:51.471Z,25.13
2018-12-27T13:46:58.551Z,25.05
2018-12-27T13:49:05.744Z,24.97
2018-12-27T13:51:12.989Z,24.85
2018-12-27T13:53:20.440Z,24.69
2018-12-27T13:55:27.511Z,24.54
2018-12-27T13:57:34.890Z,24.39
2018-12-27T13:59:42.074Z,24.28
2018-12-27T14:01:49.256Z,24.17
2018-12-27T14:03:56.259Z,24.10
2018-12-27T14:06:03.680Z,24.04
2018-12-27T14:08:10.695Z,23.91
2018-12-27T14:10:17.807Z,23.86
2018-12-27T14:12:24.976Z,23.85
2018-12-27T14:14:52.801Z,23.99
2018-12-27T14:17:24.972Z,24.12
2018-12-27T14:19:33.435Z,24.22
2018-12-27T14:22:15.979Z,24.35
2018-12-27T14:26:55.354Z,24.60
2018-12-27T14:29:03.054Z,24.75
2018-12-27T14:31:10.554Z,24.82
2018-12-27T14:33:17.964Z,24.99
2018-12-27T14:35:25.602Z,25.08
2018-12-27T14:37:33.424Z,25.15
2018-12-27T14:39:40.602Z,25.05
2018-12-27T14:41:48.361Z,24.87
2018-12-27T14:43:55.875Z,24.82
2018-12-27T14:46:03.554Z,24.72
2018-12-27T14:48:11.489Z,24.54
2018-12-27T14:50:18.643Z,24.48
2018-12-27T14:52:26.578Z,24.40
2018-12-27T14:54:34.475Z,24.30
2018-12-27T14:56:41.809Z,24.30
2018-12-27T14:58:50.407Z,24.29
2018-12-27T15:00:57.581Z,24.11
2018-12-27T15:03:04.719Z,24.04
2018-12-27T15:05:13.627Z,24.05
2018-12-27T15:07:21.038Z,24.03
2018-12-27T15:09:28.109Z,24.03
2018-12-27T15:11:35.284Z,24.07
2018-12-27T15:13:42.439Z,24.12
2018-12-27T15:15:49.401Z,24.23
2018-12-27T15:17:56.402Z,24.41
2018-12-27T15:20:04.745Z,24.54
2018-12-27T15:22:12.406Z,24.69
2018-12-27T15:24:20.047Z,24.81
2018-12-27T15:26:27.499Z,24.93
2018-12-27T15:28:34.202Z,25.04
2018-12-27T15:30:40.974Z,25.10
2018-12-27T15:32:48.430Z,25.15
2018-12-27T15:34:55.588Z,25.22
2018-12-27T15:37:02.281Z,25.31
